createdAt,value
2022-08-14T00:02:22.913Z,3.87
2022-08-14T00:04:55.766Z,4.25
2022-08-14T00:07:25.196Z,4.25
2022-08-14T00:10:49.245Z,3.75
2022-08-14T00:12:56.384Z,4.88
2022-08-14T00:15:43.895Z,4.72
2022-08-14T00:19:06.967Z,3.95
2022-08-14T00:21:11.258Z,4.60
2022-08-14T00:23:43.966Z,4.10
2022-08-14T00:28:59.239Z,4.40
2022-08-14T00:31:32.982Z,5.38
2022-08-14T00:34:36.507Z,4.45
2022-08-14T00:37:08.383Z,5.28
2022-08-14T00:39:42.929Z,4.45
2022-08-14T00:42:21.396Z,4.70
2022-08-14T00:45:04.373Z,4.60
2022-08-14T00:47:42.944Z,5.18
2022-08-14T00:50:19.759Z,5.05
2022-08-14T00:52:54.078Z,4.90
2022-08-14T00:55:24.583Z,5.18
2022-08-14T00:58:08.107Z,4.85
2022-08-14T01:00:43.134Z,5.20
2022-08-14T01:03:23.016Z,4.72
2022-08-14T01:05:54.680Z,4.88
2022-08-14T01:08:51.769Z,5.60
2022-08-14T01:14:01.171Z,4.25
2022-08-14T01:16:33.008Z,4.88
2022-08-14T01:19:23.131Z,4.63
2022-08-14T01:21:56.179Z,4.93
2022-08-14T01:24:30.836Z,4.93
2022-08-14T01:27:07.108Z,4.85
2022-08-14T01:32:30.044Z,5.30
2022-08-14T01:35:20.999Z,5.35
2022-08-14T01:37:57.040Z,5.63
2022-08-14T01:40:33.159Z,5.60
2022-08-14T01:43:14.762Z,5.72
2022-08-14T01:45:48.974Z,5.35
2022-08-14T01:48:33.454Z,5.40
2022-08-14T01:51:18.698Z,5.93
2022-08-14T01:53:56.265Z,5.32
2022-08-14T01:56:39.141Z,6.35
2022-08-14T01:59:18.121Z,5.75
2022-08-14T02:01:51.494Z,5.50
2022-08-14T02:04:54.804Z,5.68
2022-08-14T02:07:27.228Z,7.20
2022-08-14T02:10:16.270Z,6.22
2022-08-14T02:12:57.112Z,6.90
2022-08-14T02:15:28.238Z,5.82
2022-08-14T02:18:01.986Z,5.88
2022-08-14T02:20:33.883Z,6.60
2022-08-14T02:23:05.682Z,6.22
2022-08-14T02:25:39.661Z,6.93
2022-08-14T02:28:24.454Z,6.60
2022-08-14T02:31:00.937Z,6.88
2022-08-14T02:33:33.759Z,8.25
2022-08-14T02:37:04.554Z,6.72
2022-08-14T02:39:02.606Z,7.55
2022-08-14T02:41:38.943Z,8.20
2022-08-14T02:44:11.558Z,6.40
2022-08-14T02:46:44.955Z,6.90
2022-08-14T02:49:33.930Z,7.45
2022-08-14T02:52:16.032Z,7.30
2022-08-14T02:57:39.241Z,6.70
2022-08-14T03:00:18.676Z,7.32
2022-08-14T03:02:58.684Z,7.45
2022-08-14T03:05:35.912Z,7.65
2022-08-14T03:08:08.521Z,7.03
2022-08-14T03:10:42.038Z,7.30
2022-08-14T03:13:22.147Z,7.10
2022-08-14T03:15:55.907Z,7.20
2022-08-14T03:18:30.734Z,7.90
2022-08-14T03:21:02.284Z,7.65
2022-08-14T03:23:36.342Z,7.22
2022-08-14T03:26:12.933Z,7.47
2022-08-14T03:28:51.992Z,7.85
2022-08-14T03:31:25.983Z,8.73
2022-08-14T03:34:00.560Z,8.10
2022-08-14T03:37:39.165Z,8.80
2022-08-14T03:39:24.277Z,8.88
2022-08-14T03:41:59.960Z,8.63
2022-08-14T03:45:18.632Z,7.90
2022-08-14T03:47:38.167Z,8.43
2022-08-14T03:50:30.922Z,8.43
2022-08-14T03:53:03.270Z,9.07
2022-08-14T03:55:35.048Z,8.48
2022-08-14T03:58:09.495Z,8.77
2022-08-14T04:00:46.419Z,9.02
2022-08-14T04:03:24.394Z,9.18
2022-08-14T04:05:58.177Z,8.68
2022-08-14T04:08:31.629Z,9.15
2022-08-14T04:11:10.291Z,8.95
2022-08-14T04:13:43.725Z,8.70
2022-08-14T04:16:20.847Z,9.50
2022-08-14T04:18:53.246Z,9.30
2022-08-14T04:21:25.752Z,10.13
2022-08-14T04:23:58.481Z,9.70
2022-08-14T04:26:43.043Z,9.65
2022-08-14T04:29:16.066Z,9.52
2022-08-14T04:32:58.245Z,9.23
2022-08-14T04:34:42.235Z,9.82
2022-08-14T04:37:41.055Z,9.65
2022-08-14T04:40:30.693Z,9.98
2022-08-14T04:43:19.457Z,9.85
2022-08-14T04:45:52.269Z,9.13
2022-08-14T04:48:31.643Z,10.10
2022-08-14T04:51:16.765Z,9.38
2022-08-14T04:53:48.568Z,9.38
2022-08-14T04:56:34.280Z,8.85
2022-08-14T04:59:09.971Z,9.38
2022-08-14T05:01:48.903Z,9.32
2022-08-14T05:04:22.068Z,9.18
2022-08-14T05:06:54.228Z,8.65
2022-08-14T05:09:28.608Z,10.05
2022-08-14T05:12:58.497Z,10.32
2022-08-14T05:14:55.086Z,9.95
2022-08-14T05:17:31.998Z,9.85
2022-08-14T05:21:54.378Z,8.65
2022-08-14T05:23:05.133Z,9.40
2022-08-14T05:25:35.193Z,9.35
2022-08-14T05:28:16.337Z,9.25
2022-08-14T05:30:52.780Z,9.45
2022-08-14T05:33:36.597Z,9.60
2022-08-14T05:36:16.472Z,9.82
2022-08-14T05:38:48.233Z,9.20
2022-08-14T05:41:19.624Z,8.80
2022-08-14T05:43:49.540Z,9.15
2022-08-14T05:46:22.973Z,9.07
2022-08-14T05:48:54.296Z,9.70
2022-08-14T05:51:25.782Z,14.05
2022-08-14T05:54:01.745Z,9.20
2022-08-14T05:56:42.568Z,9.65
2022-08-14T05:59:12.901Z,8.13
2022-08-14T06:01:48.063Z,9.40
2022-08-14T06:04:20.184Z,8.25
2022-08-14T06:06:50.541Z,9.70
2022-08-14T06:09:22.763Z,9.05
2022-08-14T06:11:53.973Z,8.27
2022-08-14T06:14:25.616Z,8.35
2022-08-14T06:16:55.889Z,8.60
2022-08-14T06:19:25.303Z,8.52
2022-08-14T06:21:56.369Z,8.93
2022-08-14T06:24:30.488Z,11.75
2022-08-14T06:27:10.174Z,8.60
2022-08-14T06:29:42.362Z,8.60
2022-08-14T06:32:37.574Z,8.93
2022-08-14T06:35:09.552Z,9.38
2022-08-14T06:37:47.029Z,9.38
2022-08-14T06:40:27.600Z,8.95
2022-08-14T06:43:03.461Z,9.98
2022-08-14T06:45:33.237Z,9.18
2022-08-14T06:48:12.515Z,9.68
2022-08-14T06:50:42.024Z,9.50
2022-08-14T06:53:19.860Z,9.73
2022-08-14T06:55:58.167Z,9.55
2022-08-14T06:58:31.310Z,8.93
2022-08-14T07:01:26.716Z,9.18
2022-08-14T07:04:24.048Z,9.50
2022-08-14T07:06:58.970Z,9.50
2022-08-14T07:09:43.935Z,9.20
2022-08-14T07:15:11.773Z,22.75
2022-08-14T07:17:52.035Z,15.70
2022-08-14T07:20:31.139Z,16.98
2022-08-14T07:23:07.001Z,8.00
2022-08-14T07:25:39.714Z,7.97
2022-08-14T07:28:20.717Z,7.88
2022-08-14T07:30:51.992Z,8.55
2022-08-14T07:33:28.887Z,7.80
2022-08-14T07:36:26.438Z,8.38
2022-08-14T07:38:52.602Z,7.72
2022-08-14T07:41:22.896Z,8.93
2022-08-14T07:43:55.643Z,7.63
2022-08-14T07:46:29.160Z,7.82
2022-08-14T07:49:00.286Z,6.97
2022-08-14T07:51:37.149Z,7.43
2022-08-14T07:54:11.337Z,6.85
2022-08-14T07:56:46.877Z,7.95
2022-08-14T07:59:21.080Z,7.47
2022-08-14T08:02:18.694Z,7.72
2022-08-14T08:04:54.026Z,7.38
2022-08-14T08:07:30.061Z,7.72
2022-08-14T08:10:02.311Z,6.97
2022-08-14T08:12:33.509Z,7.85
2022-08-14T08:15:07.145Z,6.45
2022-08-14T08:17:42.623Z,6.10
2022-08-14T08:20:27.145Z,6.55
2022-08-14T08:23:06.148Z,7.53
2022-08-14T08:25:41.004Z,21.85
2022-08-14T08:28:22.022Z,16.70
2022-08-14T08:30:53.488Z,7.30
2022-08-14T08:33:25.883Z,6.45
2022-08-14T08:36:03.804Z,6.40
2022-08-14T08:39:17.743Z,6.10
2022-08-14T08:41:25.197Z,6.75
2022-08-14T08:44:05.802Z,5.95
2022-08-14T08:46:48.007Z,5.75
2022-08-14T08:49:18.515Z,6.32
2022-08-14T08:51:47.999Z,6.30
2022-08-14T08:54:19.603Z,6.45
2022-08-14T08:56:52.074Z,6.30
2022-08-14T08:59:27.265Z,5.75
2022-08-14T09:02:06.310Z,5.78
2022-08-14T09:04:45.347Z,5.50
2022-08-14T09:07:27.885Z,8.52
2022-08-14T09:09:59.676Z,12.68
2022-08-14T09:12:34.148Z,8.85
2022-08-14T09:15:11.707Z,5.28
2022-08-14T09:17:42.754Z,5.60
2022-08-14T09:20:25.832Z,5.65
2022-08-14T09:23:00.171Z,4.93
2022-08-14T09:26:00.933Z,4.93
2022-08-14T09:28:20.755Z,5.65
2022-08-14T09:30:57.707Z,6.05
2022-08-14T09:33:56.061Z,5.78
2022-08-14T09:37:03.143Z,5.85
2022-08-14T09:39:47.831Z,5.10
2022-08-14T09:42:50.201Z,5.57
2022-08-14T09:45:24.115Z,4.53
2022-08-14T09:47:57.109Z,5.53
2022-08-14T09:50:29.997Z,5.10
2022-08-14T09:53:02.854Z,4.82
2022-08-14T09:55:42.724Z,4.75
2022-08-14T09:58:19.836Z,4.80
2022-08-14T10:00:55.073Z,4.40
2022-08-14T10:03:34.251Z,4.70
2022-08-14T10:06:10.153Z,4.45
2022-08-14T10:08:51.145Z,5.13
2022-08-14T10:11:24.881Z,4.97
2022-08-14T10:14:29.528Z,4.70
2022-08-14T10:17:09.195Z,4.55
2022-08-14T10:19:50.586Z,4.88
2022-08-14T10:23:21.769Z,4.55
2022-08-14T10:25:20.076Z,4.60
2022-08-14T10:27:59.062Z,4.35
2022-08-14T10:30:37.944Z,4.72
2022-08-14T10:33:08.341Z,4.03
2022-08-14T10:35:47.854Z,3.95
2022-08-14T10:38:28.493Z,3.60
2022-08-14T10:41:13.500Z,3.72
2022-08-14T10:43:43.081Z,4.30
2022-08-14T10:47:36.449Z,3.95
2022-08-14T10:49:06.473Z,3.42
2022-08-14T10:51:39.718Z,3.67
2022-08-14T10:54:26.326Z,2.83
2022-08-14T10:57:12.421Z,4.05
2022-08-14T10:59:48.009Z,3.27
2022-08-14T11:02:44.601Z,2.92
2022-08-14T11:05:20.294Z,3.60
2022-08-14T11:08:00.430Z,3.33
2022-08-14T11:10:43.899Z,2.78
2022-08-14T11:13:18.784Z,2.88
2022-08-14T11:15:49.232Z,2.80
2022-08-14T11:18:20.507Z,2.88
2022-08-14T11:21:02.156Z,2.28
2022-08-14T11:23:38.332Z,3.03
2022-08-14T11:26:10.201Z,2.70
2022-08-14T11:28:47.032Z,3.22
2022-08-14T11:31:22.221Z,3.13
2022-08-14T11:33:55.483Z,3.00
2022-08-14T11:36:57.163Z,2.42
2022-08-14T11:39:33.328Z,3.72
2022-08-14T11:42:55.596Z,2.58
2022-08-14T11:44:59.885Z,2.72
2022-08-14T11:47:35.362Z,2.35
2022-08-14T11:50:33.760Z,1.95
2022-08-14T11:53:08.514Z,2.20
2022-08-14T11:55:40.031Z,1.77
2022-08-14T12:01:01.933Z,1.92
2022-08-14T12:03:51.634Z,2.00
2022-08-14T12:06:29.787Z,1.75
2022-08-14T12:09:15.274Z,1.67
2022-08-14T12:11:47.500Z,1.83
2022-08-14T12:14:30.210Z,2.28
2022-08-14T12:17:12.054Z,2.20
2022-08-14T12:19:51.540Z,2.38
2022-08-14T12:22:38.113Z,2.22
2022-08-14T12:25:11.697Z,2.85
2022-08-14T12:27:53.459Z,2.08
2022-08-14T12:30:38.107Z,2.63
2022-08-14T12:33:27.135Z,2.53
2022-08-14T12:36:06.135Z,2.30
2022-08-14T12:38:38.340Z,2.13
2022-08-14T12:41:16.443Z,2.60
2022-08-14T12:43:55.596Z,2.60
2022-08-14T12:46:28.923Z,3.22
2022-08-14T12:48:59.509Z,2.53
2022-08-14T12:51:30.717Z,2.85
2022-08-14T12:54:01.491Z,2.47
2022-08-14T12:56:34.113Z,2.20
2022-08-14T12:59:05.657Z,2.35
2022-08-14T13:01:59.843Z,2.33
2022-08-14T13:04:25.515Z,2.10
2022-08-14T13:06:54.170Z,1.80
2022-08-14T13:09:35.746Z,2.28
2022-08-14T13:12:31.871Z,2.03
2022-08-14T13:14:59.848Z,2.33
2022-08-14T13:17:37.937Z,2.22
2022-08-14T13:20:10.682Z,2.88
2022-08-14T13:22:56.143Z,2.22
2022-08-14T13:25:27.376Z,2.30
2022-08-14T13:27:59.433Z,2.20
2022-08-14T13:33:00.201Z,2.28
2022-08-14T13:35:30.031Z,2.58
2022-08-14T13:37:58.775Z,2.95
2022-08-14T13:40:29.920Z,2.40
2022-08-14T13:45:59.665Z,2.95
2022-08-14T13:48:32.363Z,2.65
2022-08-14T13:51:08.058Z,2.47
2022-08-14T13:54:07.165Z,2.72
2022-08-14T13:56:39.500Z,3.22
2022-08-14T13:59:10.116Z,2.60
2022-08-14T14:01:43.505Z,2.67
2022-08-14T14:04:19.022Z,2.67
2022-08-14T14:06:51.252Z,2.38
2022-08-14T14:09:32.611Z,2.40
2022-08-14T14:12:38.506Z,2.83
2022-08-14T14:15:09.672Z,2.70
2022-08-14T14:20:15.259Z,3.08
2022-08-14T14:23:03.641Z,2.65
2022-08-14T14:25:46.351Z,3.47
2022-08-14T14:28:24.222Z,3.53
2022-08-14T14:30:57.310Z,3.40
2022-08-14T14:33:49.867Z,3.50
2022-08-14T14:36:21.951Z,3.40
2022-08-14T14:38:54.796Z,2.80
2022-08-14T14:41:25.371Z,2.80
2022-08-14T14:43:55.752Z,2.90
2022-08-14T14:46:36.824Z,3.47
2022-08-14T14:49:14.717Z,3.45
2022-08-14T14:51:51.571Z,3.15
2022-08-14T14:54:31.048Z,3.00
2022-08-14T14:57:02.554Z,2.90
2022-08-14T14:59:33.593Z,3.30
2022-08-14T15:02:08.184Z,3.35
2022-08-14T15:04:43.698Z,3.28
2022-08-14T15:07:13.134Z,3.67
2022-08-14T15:09:45.458Z,3.55
2022-08-14T15:15:09.006Z,3.35
2022-08-14T15:17:40.793Z,3.22
2022-08-14T15:20:17.286Z,3.28
2022-08-14T15:23:07.957Z,4.03
2022-08-14T15:25:41.472Z,3.80
2022-08-14T15:28:13.156Z,3.05
2022-08-14T15:30:58.036Z,5.10
2022-08-14T15:34:33.147Z,3.65
2022-08-14T15:36:36.148Z,3.50
2022-08-14T15:39:06.570Z,2.95
2022-08-14T15:41:41.659Z,3.30
2022-08-14T15:44:25.485Z,3.30
2022-08-14T15:46:58.229Z,3.22
2022-08-14T15:49:34.484Z,3.45
2022-08-14T15:52:07.209Z,3.25
2022-08-14T15:54:37.752Z,3.10
2022-08-14T15:57:09.944Z,2.97
2022-08-14T15:59:58.523Z,3.47
2022-08-14T16:02:28.788Z,3.38
2022-08-14T16:04:58.077Z,3.53
2022-08-14T16:07:28.856Z,3.22
2022-08-14T16:10:27.555Z,3.30
2022-08-14T16:12:47.959Z,3.13
2022-08-14T16:15:17.947Z,3.15
2022-08-14T16:17:48.139Z,3.72
2022-08-14T16:23:13.564Z,3.10
2022-08-14T16:25:45.741Z,4.10
2022-08-14T16:28:27.651Z,4.27
2022-08-14T16:30:58.013Z,4.18
2022-08-14T16:33:58.766Z,4.03
2022-08-14T16:36:30.409Z,3.85
2022-08-14T16:39:03.042Z,4.35
2022-08-14T16:40:24.002Z,3.50
2022-08-14T16:41:32.645Z,3.85
2022-08-14T16:44:13.767Z,4.57
2022-08-14T16:46:57.202Z,5.35
2022-08-14T16:50:03.472Z,3.85
2022-08-14T16:52:25.892Z,4.63
2022-08-14T16:55:11.415Z,4.32
2022-08-14T16:57:49.963Z,5.85
2022-08-14T17:00:32.900Z,4.50
2022-08-14T17:03:12.544Z,4.40
2022-08-14T17:05:46.705Z,4.15
2022-08-14T17:08:32.887Z,4.53
2022-08-14T17:11:10.936Z,3.75
2022-08-14T17:13:58.677Z,4.22
2022-08-14T17:16:35.694Z,4.25
2022-08-14T17:19:13.403Z,4.90
2022-08-14T17:21:46.832Z,4.03
2022-08-14T17:24:57.130Z,4.63
2022-08-14T17:27:18.131Z,3.67
2022-08-14T17:29:56.245Z,3.45
2022-08-14T17:32:29.318Z,4.35
2022-08-14T17:35:16.286Z,9.75
2022-08-14T17:37:48.661Z,5.38
2022-08-14T17:40:31.963Z,4.85
2022-08-14T17:43:04.602Z,3.95
2022-08-14T17:45:45.536Z,3.50
2022-08-14T17:49:15.487Z,4.35
2022-08-14T17:51:23.764Z,3.92
2022-08-14T17:54:02.617Z,3.95
2022-08-14T17:56:34.105Z,3.53
2022-08-14T17:59:07.176Z,3.58
2022-08-14T18:01:38.862Z,3.55
2022-08-14T18:04:28.424Z,3.40
2022-08-14T18:07:16.893Z,3.97
2022-08-14T18:09:56.997Z,4.38
2022-08-14T18:12:36.865Z,3.70
2022-08-14T18:15:17.386Z,3.30
2022-08-14T18:17:53.929Z,3.47
2022-08-14T18:21:24.035Z,4.72
2022-08-14T18:23:14.908Z,4.25
2022-08-14T18:25:49.552Z,3.75
2022-08-14T18:28:50.928Z,3.80
2022-08-14T18:31:42.044Z,6.57
2022-08-14T18:37:17.672Z,6.18
2022-08-14T18:40:02.907Z,4.75
2022-08-14T18:42:46.781Z,4.22
2022-08-14T18:48:15.846Z,4.68
2022-08-14T18:50:52.757Z,4.20
2022-08-14T18:53:25.532Z,3.55
2022-08-14T18:56:09.468Z,4.50
2022-08-14T18:58:49.502Z,5.47
2022-08-14T19:01:30.688Z,5.32
2022-08-14T19:04:04.106Z,5.55
2022-08-14T19:06:40.522Z,6.30
2022-08-14T19:09:30.276Z,4.85
2022-08-14T19:12:02.405Z,6.13
2022-08-14T19:14:48.392Z,6.13
2022-08-14T19:18:11.340Z,6.20
2022-08-14T19:20:53.304Z,5.82
2022-08-14T19:23:42.787Z,6.20
2022-08-14T19:26:35.832Z,6.10
2022-08-14T19:29:24.296Z,5.30
2022-08-14T19:31:56.239Z,16.85
2022-08-14T19:34:36.577Z,11.07
2022-08-14T19:37:10.691Z,8.27
2022-08-14T19:39:48.359Z,6.22
2022-08-14T19:42:28.407Z,5.22
2022-08-14T19:45:00.115Z,5.55
2022-08-14T19:47:41.034Z,5.15
2022-08-14T19:53:12.086Z,5.20
2022-08-14T19:56:01.348Z,5.55
2022-08-14T19:58:54.823Z,6.53
2022-08-14T20:01:36.711Z,5.53
2022-08-14T20:04:45.062Z,5.22
2022-08-14T20:07:04.417Z,5.60
2022-08-14T20:11:05.758Z,5.93
2022-08-14T20:12:35.403Z,5.38
2022-08-14T20:15:10.303Z,5.63
2022-08-14T20:17:41.081Z,5.80
2022-08-14T20:20:21.034Z,5.65
2022-08-14T20:23:02.009Z,6.47
2022-08-14T20:25:37.712Z,6.07
2022-08-14T20:28:32.212Z,10.48
2022-08-14T20:31:17.828Z,6.40
2022-08-14T20:34:24.256Z,9.10
2022-08-14T20:37:04.415Z,6.53
2022-08-14T20:39:36.137Z,6.45
2022-08-14T20:42:31.116Z,6.30
2022-08-14T20:45:24.135Z,7.00
2022-08-14T20:48:01.338Z,5.85
2022-08-14T20:50:32.059Z,6.65
2022-08-14T20:53:08.163Z,6.60
2022-08-14T20:55:45.128Z,5.90
2022-08-14T21:01:34.787Z,5.50
2022-08-14T21:04:24.312Z,6.28
2022-08-14T21:07:24.925Z,6.30
2022-08-14T21:10:04.907Z,6.38
2022-08-14T21:12:36.001Z,5.85
2022-08-14T21:15:10.068Z,6.10
2022-08-14T21:17:43.333Z,6.22
2022-08-14T21:20:25.768Z,6.60
2022-08-14T21:23:01.261Z,6.05
2022-08-14T21:25:32.203Z,7.00
2022-08-14T21:28:04.184Z,5.97
2022-08-14T21:30:51.826Z,6.82
2022-08-14T21:33:23.658Z,6.88
2022-08-14T21:35:55.006Z,6.53
2022-08-14T21:41:41.684Z,6.07
2022-08-14T21:44:17.841Z,6.60
2022-08-14T21:46:53.571Z,6.30
2022-08-14T21:49:33.995Z,6.82
2022-08-14T21:52:50.350Z,6.78
2022-08-14T21:55:09.301Z,6.53
2022-08-14T21:58:04.107Z,7.28
2022-08-14T22:00:39.456Z,7.38
2022-08-14T22:03:14.312Z,8.15
2022-08-14T22:05:46.270Z,6.60
2022-08-14T22:08:19.582Z,7.03
2022-08-14T22:10:51.680Z,8.10
2022-08-14T22:13:26.721Z,8.18
2022-08-14T22:16:02.000Z,7.07
2022-08-14T22:18:32.286Z,7.25
2022-08-14T22:21:05.828Z,7.50
2022-08-14T22:23:37.133Z,7.28
2022-08-14T22:26:07.320Z,8.20
2022-08-14T22:28:38.254Z,7.75
2022-08-14T22:31:23.031Z,7.90
2022-08-14T22:33:57.818Z,7.30
2022-08-14T22:36:47.654Z,8.25
2022-08-14T22:39:16.688Z,8.35
2022-08-14T22:41:56.090Z,8.13
2022-08-14T22:44:30.309Z,7.72
2022-08-14T22:47:00.187Z,7.40
2022-08-14T22:50:32.127Z,8.38
2022-08-14T22:52:33.323Z,8.43
2022-08-14T22:55:06.068Z,7.75
2022-08-14T22:57:42.101Z,7.75
2022-08-14T23:00:16.542Z,8.20
2022-08-14T23:02:49.766Z,8.02
2022-08-14T23:05:39.688Z,8.10
2022-08-14T23:08:57.038Z,8.70
2022-08-14T23:11:10.337Z,8.07
2022-08-14T23:13:43.370Z,8.40
2022-08-14T23:16:20.375Z,8.48
2022-08-14T23:18:53.993Z,7.78
2022-08-14T23:21:25.276Z,7.93
2022-08-14T23:24:00.383Z,7.60
2022-08-14T23:26:47.073Z,8.43
2022-08-14T23:29:20.430Z,9.27
2022-08-14T23:31:51.026Z,7.25
2022-08-14T23:34:22.955Z,8.15
2022-08-14T23:36:55.968Z,8.25
2022-08-14T23:39:31.179Z,8.27
2022-08-14T23:42:04.683Z,7.93
2022-08-14T23:44:36.961Z,8.07
2022-08-14T23:47:11.922Z,8.00
2022-08-14T23:50:04.170Z,8.23
2022-08-14T23:52:51.379Z,9.15
2022-08-14T23:55:32.437Z,8.95
2022-08-14T23:58:03.623Z,8.25
